Time;durP1;ratioP1;P1;durP2;ratioP2;P2;SDS_P1;SDS_P2;PMS_P1;PMS_P2;Temp;Humidity;BMP_temperature;BMP_pressure;BME280_temperature;BME280_humidity;BME280_pressure;Samples;Min_cycle;Max_cycle;Signal;HPM_P1;HPM_P2
2023/04/15 00:01:57;;;;;;;1.67;0.70;;;;;;;8.23;53.20;96228.16;4938998;28;20259;-86
2023/04/15 00:04:22;;;;;;;1.00;0.60;;;;;;;8.21;52.97;96231.00;4921778;28;20203;-85
2023/04/15 00:06:52;;;;;;;2.22;0.93;;;;;;;8.20;52.93;96239.03;4938422;28;20357;-86
2023/04/15 00:09:18;;;;;;;2.10;0.57;;;;;;;7.84;53.27;96216.28;4931919;28;20172;-86
2023/04/15 00:11:45;;;;;;;5.47;0.82;;;;;;;8.23;52.23;96241.91;4941618;28;20320;-86
2023/04/15 00:14:11;;;;;;;2.03;0.45;;;;;;;8.31;51.85;96238.06;4958659;28;20319;-86
2023/04/15 00:16:37;;;;;;;2.30;0.65;;;;;;;8.12;52.13;96235.09;4944814;28;20469;-86
2023/04/15 00:19:02;;;;;;;3.10;0.60;;;;;;;8.11;52.15;96236.13;4928517;28;20275;-85
2023/04/15 00:21:29;;;;;;;2.55;0.70;;;;;;;8.01;52.91;96234.25;4956379;28;20523;-86
2023/04/15 00:23:55;;;;;;;2.75;1.20;;;;;;;7.92;54.16;96233.19;4928078;28;20289;-86
2023/04/15 00:26:21;;;;;;;1.85;0.63;;;;;;;7.82;54.22;96233.09;4930200;28;20238;-85
2023/04/15 00:28:46;;;;;;;3.30;0.98;;;;;;;7.76;54.39;96223.72;4951800;28;20372;-85
2023/04/15 00:31:12;;;;;;;2.63;0.93;;;;;;;7.80;53.43;96235.19;4943645;28;20382;-86
2023/04/15 00:33:37;;;;;;;3.38;0.70;;;;;;;7.76;54.09;96234.09;4914020;28;20183;-86
2023/04/15 00:36:04;;;;;;;1.65;0.68;;;;;;;7.73;53.79;96229.41;4928985;28;20744;-86
2023/04/15 00:38:30;;;;;;;1.95;0.70;;;;;;;7.81;53.37;96227.16;4939125;28;20419;-86
2023/04/15 00:40:56;;;;;;;1.40;0.60;;;;;;;7.79;54.00;96215.47;4929348;28;20163;-86
2023/04/15 00:43:21;;;;;;;1.15;0.73;;;;;;;7.63;54.84;96204.22;4937326;28;20558;-86
2023/04/15 00:45:47;;;;;;;1.88;0.65;;;;;;;7.61;54.61;96204.47;4940197;28;20180;-86
2023/04/15 00:48:12;;;;;;;1.20;0.68;;;;;;;7.59;54.58;96209.13;4946406;28;20106;-86
2023/04/15 00:50:38;;;;;;;2.25;0.98;;;;;;;7.62;54.66;96213.00;4933026;28;20203;-86
2023/04/15 00:53:03;;;;;;;2.28;0.75;;;;;;;7.46;54.71;96199.97;4921719;28;20191;-86
2023/04/15 00:55:29;;;;;;;2.30;0.70;;;;;;;7.48;54.49;96208.25;4929499;28;20211;-86
2023/04/15 00:57:56;;;;;;;2.08;0.70;;;;;;;7.54;54.68;96216.06;4942417;28;20211;-86
2023/04/15 01:00:21;;;;;;;1.63;0.65;;;;;;;7.37;55.52;96192.88;4922072;28;21483;-85
2023/04/15 01:02:47;;;;;;;3.83;1.48;;;;;;;7.50;54.55;96206.22;4976693;23;20092;-81
2023/04/15 01:05:16;;;;;;;2.25;0.50;;;;;;;7.45;54.37;96205.38;4972255;28;20281;-81
2023/04/15 01:07:41;;;;;;;3.63;1.10;;;;;;;7.36;54.63;96209.47;4925363;28;20549;-81
2023/04/15 01:10:07;;;;;;;1.83;1.00;;;;;;;7.29;54.92;96205.25;4943195;28;20201;-81
2023/04/15 01:12:34;;;;;;;3.42;1.42;;;;;;;7.29;55.18;96199.31;4959251;28;20279;-81
2023/04/15 01:14:59;;;;;;;3.00;1.20;;;;;;;7.31;55.76;96203.19;4943706;28;20203;-81
2023/04/15 01:17:25;;;;;;;1.95;0.73;;;;;;;7.35;54.86;96205.31;4938804;28;20199;-81
2023/04/15 01:19:51;;;;;;;1.77;0.80;;;;;;;7.44;54.88;96204.59;4967146;28;20264;-81
2023/04/15 01:22:16;;;;;;;2.08;0.80;;;;;;;7.36;55.39;96199.88;4948954;28;20703;-81
2023/04/15 01:25:01;;;;;;;2.50;0.68;;;;;;;7.41;56.46;96206.91;4937114;28;20267;-81
2023/04/15 01:27:26;;;;;;;2.30;0.57;;;;;;;7.32;55.34;96209.19;4946341;28;20277;-81
2023/04/15 01:29:52;;;;;;;1.95;0.73;;;;;;;7.20;55.56;96196.41;4964888;28;20380;-81
2023/04/15 01:32:18;;;;;;;2.65;0.50;;;;;;;7.22;55.19;96204.69;4950216;28;20711;-81
2023/04/15 01:34:43;;;;;;;1.05;0.57;;;;;;;7.24;55.16;96207.03;4965404;28;20279;-81
2023/04/15 01:37:08;;;;;;;1.83;0.93;;;;;;;7.17;56.27;96202.06;4934076;28;20191;-81
2023/04/15 01:39:34;;;;;;;2.13;0.82;;;;;;;7.19;55.43;96218.13;4966899;28;20355;-81
2023/04/15 01:41:59;;;;;;;1.85;0.90;;;;;;;7.13;56.19;96206.19;4966114;28;20187;-82
2023/04/15 01:44:25;;;;;;;1.65;1.02;;;;;;;7.08;55.96;96200.97;4949161;28;20214;-81
2023/04/15 01:46:50;;;;;;;2.22;1.20;;;;;;;7.09;56.48;96215.44;4944270;28;20195;-81
2023/04/15 01:49:15;;;;;;;2.72;1.17;;;;;;;7.01;56.20;96202.94;4949289;28;20269;-81
2023/04/15 01:51:41;;;;;;;2.67;1.23;;;;;;;7.03;56.05;96200.91;4949552;28;20852;-81
2023/04/15 01:54:06;;;;;;;3.45;1.02;;;;;;;6.96;56.15;96206.28;4967470;28;20572;-81
2023/04/15 01:56:32;;;;;;;2.70;0.88;;;;;;;6.97;55.68;96215.59;4947485;28;20305;-81
2023/04/15 01:58:57;;;;;;;4.13;1.10;;;;;;;7.10;54.25;96214.44;4948128;28;20203;-81
2023/04/15 02:01:23;;;;;;;2.25;1.23;;;;;;;7.03;54.21;96212.03;4976238;28;20318;-81
2023/04/15 02:03:49;;;;;;;2.42;1.00;;;;;;;6.77;54.45;96210.22;4977058;28;20179;-80
2023/04/15 02:06:14;;;;;;;6.95;1.20;;;;;;;6.73;54.81;96213.31;4956090;28;21658;-80
2023/04/15 02:08:40;;;;;;;5.38;1.10;;;;;;;6.78;54.49;96207.38;4943844;28;20201;-81
2023/04/15 02:11:05;;;;;;;5.40;0.90;;;;;;;6.76;54.43;96217.19;4960675;28;20206;-81
2023/04/15 02:13:30;;;;;;;2.22;0.88;;;;;;;6.69;54.80;96208.84;4943552;28;20176;-80
2023/04/15 02:15:56;;;;;;;1.95;0.82;;;;;;;6.59;54.70;96214.69;4943113;28;20241;-80
2023/04/15 02:18:21;;;;;;;3.60;1.10;;;;;;;6.64;54.74;96219.16;4944329;28;20260;-81
2023/04/15 02:20:47;;;;;;;2.10;0.75;;;;;;;6.41;55.29;96213.22;4942765;28;20665;-81
2023/04/15 02:23:13;;;;;;;2.60;1.15;;;;;;;6.26;56.39;96218.97;4926979;28;20668;-81
2023/04/15 02:25:38;;;;;;;3.88;1.50;;;;;;;6.06;57.49;96214.31;4958811;28;20256;-81
2023/04/15 02:28:05;;;;;;;4.85;1.13;;;;;;;6.03;57.38;96214.00;4941720;28;20296;-81
2023/04/15 02:30:31;;;;;;;5.00;1.42;;;;;;;5.93;58.26;96220.59;4960084;28;20284;-81
2023/04/15 02:32:56;;;;;;;4.47;1.30;;;;;;;5.88;58.44;96222.31;4957639;28;20288;-81
2023/04/15 02:35:24;;;;;;;2.45;1.33;;;;;;;5.93;58.72;96224.97;4924730;28;20691;-81
2023/04/15 02:37:50;;;;;;;2.65;1.20;;;;;;;6.01;57.71;96229.75;4956871;28;20285;-81
2023/04/15 02:40:16;;;;;;;4.07;1.40;;;;;;;5.95;58.32;96226.31;4926260;28;20598;-81
2023/04/15 02:42:43;;;;;;;3.88;1.10;;;;;;;5.95;58.49;96228.09;4959465;28;20267;-81
2023/04/15 02:45:10;;;;;;;2.20;1.15;;;;;;;5.94;58.81;96219.56;4961001;28;20881;-81
2023/04/15 02:47:36;;;;;;;2.40;1.45;;;;;;;6.00;58.86;96220.47;4968156;28;20176;-81
2023/04/15 02:50:02;;;;;;;3.17;1.00;;;;;;;5.99;58.53;96214.50;4958259;28;20249;-81
2023/04/15 02:52:28;;;;;;;2.55;1.15;;;;;;;5.92;58.74;96219.03;4958139;28;20589;-81
2023/04/15 02:54:59;;;;;;;1.88;0.65;;;;;;;5.98;58.96;96222.47;4958798;28;20199;-81
2023/04/15 02:57:25;;;;;;;3.03;0.85;;;;;;;5.92;58.50;96216.44;4958444;28;20205;-81
2023/04/15 02:59:50;;;;;;;1.95;0.90;;;;;;;5.94;59.06;96213.63;4958259;28;20211;-80
2023/04/15 03:02:15;;;;;;;4.60;0.95;;;;;;;5.94;59.30;96211.03;4960500;28;20247;-81
2023/04/15 03:04:41;;;;;;;1.70;0.70;;;;;;;5.96;59.10;96209.00;4925420;28;20225;-81
2023/04/15 03:07:06;;;;;;;1.45;0.65;;;;;;;6.10;58.26;96209.44;4950172;28;20637;-81
2023/04/15 03:09:31;;;;;;;2.10;0.80;;;;;;;6.14;58.10;96215.72;4948793;28;20582;-81
2023/04/15 03:11:57;;;;;;;3.33;1.05;;;;;;;6.15;58.44;96217.28;4931173;28;20338;-81
2023/04/15 03:14:22;;;;;;;2.05;0.88;;;;;;;6.09;58.25;96206.09;4963614;28;20288;-81
2023/04/15 03:16:49;;;;;;;1.42;0.82;;;;;;;6.14;58.41;96216.50;4972497;28;20278;-81
2023/04/15 03:19:14;;;;;;;1.70;0.70;;;;;;;6.12;58.57;96218.53;4980708;28;20186;-81
2023/04/15 03:21:40;;;;;;;2.15;1.20;;;;;;;6.14;58.61;96221.66;4958506;28;20203;-81
2023/04/15 03:24:05;;;;;;;2.15;0.75;;;;;;;6.17;58.89;96217.84;4977860;28;20643;-81
2023/04/15 03:26:31;;;;;;;1.40;0.70;;;;;;;6.17;59.01;96212.66;4964509;28;20187;-81
2023/04/15 03:28:56;;;;;;;1.40;0.68;;;;;;;6.18;58.70;96212.41;4965836;28;20292;-81
2023/04/15 03:31:22;;;;;;;2.78;0.70;;;;;;;6.17;59.13;96215.25;4942648;28;20184;-81
2023/04/15 03:33:47;;;;;;;4.80;1.17;;;;;;;6.07;59.53;96205.56;4943233;28;20260;-81
2023/04/15 03:36:13;;;;;;;1.17;0.70;;;;;;;6.00;59.11;96210.13;4928261;28;20215;-81
2023/04/15 03:38:38;;;;;;;3.47;1.00;;;;;;;5.89;59.64;96211.75;4955846;28;20195;-81
2023/04/15 03:41:04;;;;;;;2.97;1.13;;;;;;;5.84;60.15;96213.47;4963092;28;20302;-81
2023/04/15 03:43:30;;;;;;;2.17;0.90;;;;;;;5.90;59.02;96204.78;4964297;28;20249;-81
2023/04/15 03:45:55;;;;;;;1.90;0.80;;;;;;;5.90;58.80;96212.53;4947513;28;20163;-81
2023/04/15 03:48:21;;;;;;;2.50;0.82;;;;;;;5.86;58.88;96219.19;4964696;28;20198;-81
2023/04/15 03:50:46;;;;;;;1.55;0.77;;;;;;;5.86;58.27;96217.41;4944390;28;20308;-81
2023/04/15 03:53:11;;;;;;;3.60;0.80;;;;;;;5.79;58.28;96220.16;4930109;28;20180;-81
2023/04/15 03:55:37;;;;;;;1.23;0.73;;;;;;;5.81;57.45;96218.09;4965542;28;20848;-81
2023/04/15 03:58:02;;;;;;;1.75;0.68;;;;;;;5.77;58.19;96217.00;4946839;28;20684;-82
2023/04/15 04:00:27;;;;;;;2.88;0.93;;;;;;;5.76;58.18;96218.03;4946519;28;20203;-81
2023/04/15 04:02:53;;;;;;;1.95;0.80;;;;;;;5.76;58.64;96220.63;4931072;28;20213;-81
2023/04/15 04:05:18;;;;;;;2.03;0.88;;;;;;;5.71;58.77;96217.19;4959135;28;20454;-81
2023/04/15 04:07:44;;;;;;;1.83;0.95;;;;;;;5.76;58.63;96219.84;4921086;28;20196;-81
2023/04/15 04:10:09;;;;;;;2.38;1.15;;;;;;;5.74;58.08;96224.44;4941524;28;20269;-81
2023/04/15 04:12:35;;;;;;;2.63;0.60;;;;;;;5.77;58.50;96221.38;4954817;28;20214;-81
2023/04/15 04:15:00;;;;;;;2.63;1.38;;;;;;;5.74;58.99;96227.03;4925730;28;20252;-81
2023/04/15 04:17:25;;;;;;;2.00;0.73;;;;;;;5.75;58.75;96229.38;4940439;28;20160;-83
2023/04/15 04:19:51;;;;;;;2.30;1.08;;;;;;;5.69;58.84;96225.16;4923259;28;20167;-82
2023/04/15 04:22:16;;;;;;;2.47;0.77;;;;;;;5.72;59.09;96218.72;4940321;28;20249;-82
2023/04/15 04:24:41;;;;;;;2.97;0.80;;;;;;;5.75;59.05;96231.94;4928976;28;20021;-82
2023/04/15 04:27:07;;;;;;;2.15;0.88;;;;;;;5.69;58.84;96225.16;4947867;28;20207;-82
2023/04/15 04:29:32;;;;;;;3.22;0.75;;;;;;;5.63;58.75;96231.25;4947513;28;20280;-81
2023/04/15 04:31:58;;;;;;;2.78;0.90;;;;;;;5.57;59.16;96230.41;4963694;28;20303;-81
2023/04/15 04:34:23;;;;;;;1.45;0.73;;;;;;;5.56;58.57;96228.06;4960953;28;20167;-81
2023/04/15 04:36:48;;;;;;;2.92;0.77;;;;;;;5.53;59.56;96229.31;4949647;28;20168;-83
2023/04/15 04:39:14;;;;;;;1.95;0.95;;;;;;;5.52;59.89;96232.13;4953327;28;20207;-82
2023/04/15 04:41:42;;;;;;;5.97;2.10;;;;;;;5.48;59.87;96228.44;4943398;28;20216;-82
2023/04/15 04:44:07;;;;;;;5.45;2.03;;;;;;;5.61;59.57;96233.31;4927947;28;20188;-82
2023/04/15 04:46:33;;;;;;;4.00;1.88;;;;;;;5.65;59.37;96239.56;4944426;28;20777;-83
2023/04/15 04:48:58;;;;;;;8.82;5.03;;;;;;;5.63;59.09;96233.84;4930854;28;20292;-81
2023/04/15 04:51:23;;;;;;;7.57;4.32;;;;;;;5.60;58.96;96229.16;4963760;28;20168;-81
2023/04/15 04:53:49;;;;;;;4.97;2.60;;;;;;;5.57;59.32;96234.78;4963482;28;20568;-81
2023/04/15 04:56:14;;;;;;;6.53;3.35;;;;;;;5.43;60.04;96229.16;4980379;28;20191;-82
2023/04/15 04:58:40;;;;;;;7.50;3.40;;;;;;;5.25;59.59;96240.47;4947629;28;20186;-82
2023/04/15 05:01:05;;;;;;;8.98;4.32;;;;;;;5.18;60.14;96232.13;4962099;28;20274;-82
2023/04/15 05:03:31;;;;;;;6.80;3.58;;;;;;;5.23;60.05;96227.81;4944839;28;20268;-82
2023/04/15 05:05:56;;;;;;;9.25;5.68;;;;;;;5.38;59.62;96237.59;4967339;28;20203;-82
2023/04/15 05:08:21;;;;;;;11.00;8.50;;;;;;;5.30;59.75;96226.88;4962744;28;20168;-82
2023/04/15 05:10:47;;;;;;;11.50;7.75;;;;;;;5.34;59.43;96226.16;4943843;28;20242;-80
2023/04/15 05:13:12;;;;;;;8.00;5.50;;;;;;;5.45;59.44;96232.28;4944401;28;20169;-80
2023/04/15 05:15:40;;;;;;;7.22;3.80;;;;;;;5.52;59.29;96234.69;4950312;28;20204;-80
2023/04/15 05:18:05;;;;;;;7.00;3.72;;;;;;;5.76;59.21;96243.09;4940928;28;20264;-80
2023/04/15 05:20:31;;;;;;;6.55;4.20;;;;;;;5.86;57.54;96242.44;4948765;28;20330;-80
2023/04/15 05:22:56;;;;;;;7.15;3.72;;;;;;;6.00;57.51;96241.91;4939208;28;20277;-80
2023/04/15 05:25:21;;;;;;;4.20;3.42;;;;;;;6.11;57.36;96234.28;4979307;28;20581;-80
2023/04/15 05:27:47;;;;;;;3.65;2.75;;;;;;;6.14;57.57;96237.19;4927330;28;20551;-80
2023/04/15 05:30:12;;;;;;;4.18;2.33;;;;;;;6.19;59.20;96237.25;4960627;28;20653;-80
2023/04/15 05:32:37;;;;;;;3.75;1.77;;;;;;;6.33;59.30;96245.41;4962361;28;20210;-80
2023/04/15 05:35:03;;;;;;;2.70;1.73;;;;;;;6.47;58.94;96240.69;4943181;28;20297;-80
2023/04/15 05:37:29;;;;;;;4.65;2.08;;;;;;;6.57;58.78;96230.44;4926996;28;20100;-80
2023/04/15 05:39:55;;;;;;;3.15;1.67;;;;;;;6.78;58.43;96253.94;4954643;28;20285;-80
2023/04/15 05:42:21;;;;;;;3.17;1.50;;;;;;;6.81;58.48;96242.34;4945908;28;20274;-80
2023/04/15 05:44:46;;;;;;;8.82;3.63;;;;;;;6.82;58.43;96257.63;4929447;28;20379;-80
2023/04/15 05:47:11;;;;;;;5.65;3.80;;;;;;;6.88;58.27;96254.06;4928835;28;20375;-80
2023/04/15 05:49:37;;;;;;;4.90;3.03;;;;;;;6.91;58.23;96253.59;4963569;28;20187;-80
2023/04/15 05:52:02;;;;;;;5.72;3.00;;;;;;;7.01;57.86;96262.47;4962977;28;20281;-80
2023/04/15 05:54:27;;;;;;;4.10;1.50;;;;;;;7.12;57.64;96261.56;4947190;28;20237;-80
2023/04/15 05:56:53;;;;;;;4.15;1.83;;;;;;;7.14;57.76;96249.13;4929440;28;20582;-80
2023/04/15 05:59:19;;;;;;;4.63;1.58;;;;;;;7.37;57.12;96262.81;4962748;28;20195;-80
2023/04/15 06:01:44;;;;;;;1.90;1.08;;;;;;;7.53;56.07;96256.72;4950683;28;20632;-80
2023/04/15 06:04:10;;;;;;;2.13;1.27;;;;;;;7.77;55.81;96264.94;4948895;28;20165;-80
2023/04/15 06:06:36;;;;;;;1.52;1.00;;;;;;;7.96;54.80;96252.38;4934055;28;20241;-80
2023/04/15 06:09:01;;;;;;;3.85;1.85;;;;;;;8.25;53.70;96268.34;4958570;28;20614;-80
2023/04/15 06:11:26;;;;;;;6.20;3.25;;;;;;;8.27;54.47;96254.38;4976004;28;20253;-80
2023/04/15 06:13:52;;;;;;;4.75;2.63;;;;;;;8.54;54.05;96260.22;4954541;28;20206;-80
2023/04/15 06:16:17;;;;;;;4.40;1.67;;;;;;;8.70;54.14;96265.47;4950903;28;20196;-80
2023/04/15 06:18:43;;;;;;;2.67;1.60;;;;;;;8.88;53.90;96278.00;4931079;28;20285;-80
2023/04/15 06:21:08;;;;;;;3.00;2.00;;;;;;;9.02;52.77;96273.09;4946963;28;20207;-80
2023/04/15 06:23:35;;;;;;;5.82;3.05;;;;;;;9.27;52.86;96280.16;4975488;28;20322;-80
2023/04/15 06:26:01;;;;;;;8.90;3.80;;;;;;;9.43;52.75;96275.75;4967159;28;20475;-80
2023/04/15 06:28:26;;;;;;;3.53;2.63;;;;;;;9.65;52.16;96283.31;4970928;28;20171;-80
2023/04/15 06:30:52;;;;;;;4.15;2.10;;;;;;;9.86;51.03;96278.09;4949463;28;20153;-80
2023/04/15 06:33:18;;;;;;;4.75;2.58;;;;;;;10.07;50.76;96286.66;4965572;28;20187;-80
2023/04/15 06:35:43;;;;;;;5.00;2.50;;;;;;;10.20;50.89;96267.91;4945876;28;20203;-80
2023/04/15 06:38:08;;;;;;;4.00;2.35;;;;;;;10.39;50.10;96268.16;4937339;28;20113;-80
2023/04/15 06:40:34;;;;;;;3.78;2.05;;;;;;;10.44;50.51;96277.78;4947942;28;20187;-80
2023/04/15 06:42:59;;;;;;;2.42;1.45;;;;;;;10.64;49.09;96276.91;4930084;28;20206;-80
2023/04/15 06:45:25;;;;;;;3.67;1.83;;;;;;;10.80;49.05;96280.25;4971949;28;20204;-80
2023/04/15 06:47:50;;;;;;;7.47;2.63;;;;;;;10.96;48.69;96279.09;4946108;28;20274;-80
2023/04/15 06:50:16;;;;;;;7.38;2.58;;;;;;;11.07;48.25;96277.25;4947903;28;20538;-80
2023/04/15 06:52:41;;;;;;;12.75;3.17;;;;;;;11.25;48.40;96287.03;4945225;28;20565;-80
2023/04/15 06:55:07;;;;;;;5.40;2.70;;;;;;;11.33;47.61;96282.31;4947758;28;20180;-80
2023/04/15 06:57:32;;;;;;;5.68;2.15;;;;;;;11.50;46.94;96292.34;4933159;28;20198;-80
2023/04/15 06:59:58;;;;;;;6.03;2.38;;;;;;;11.55;47.72;96280.06;4963606;28;20246;-80
2023/04/15 07:02:23;;;;;;;8.85;3.65;;;;;;;11.65;47.32;96292.22;4948781;28;20284;-79
2023/04/15 07:04:49;;;;;;;7.03;2.35;;;;;;;11.94;46.99;96283.69;4968465;28;20516;-80
2023/04/15 07:07:15;;;;;;;12.50;4.68;;;;;;;12.10;46.11;96290.31;4948479;28;20625;-81
2023/04/15 07:09:41;;;;;;;16.27;4.43;;;;;;;12.26;46.01;96293.56;4964476;28;20282;-81
2023/04/15 07:12:07;;;;;;;13.18;4.53;;;;;;;12.45;45.50;96288.41;4956639;28;20284;-80
2023/04/15 07:14:32;;;;;;;6.55;2.38;;;;;;;12.57;45.08;96287.25;4957720;28;20265;-80
2023/04/15 07:16:57;;;;;;;6.13;1.85;;;;;;;12.82;44.64;96284.34;4944467;28;20260;-81
2023/04/15 07:19:23;;;;;;;4.10;2.17;;;;;;;13.16;44.20;96286.00;4934324;28;20184;-80
2023/04/15 07:21:48;;;;;;;3.83;1.77;;;;;;;13.34;44.03;96289.69;4949193;28;20206;-80
2023/04/15 07:24:16;;;;;;;6.53;2.13;;;;;;;13.66;43.29;96288.94;4955388;28;20623;-80
2023/04/15 07:26:43;;;;;;;3.97;1.83;;;;;;;13.97;43.51;96280.59;4930132;28;20272;-82
2023/04/15 07:29:08;;;;;;;2.70;1.55;;;;;;;13.93;41.65;96287.47;4952707;28;20416;-81
2023/04/15 07:31:35;;;;;;;3.95;1.92;;;;;;;14.10;42.29;96288.75;4962866;28;20205;-81
2023/04/15 07:34:01;;;;;;;2.47;1.40;;;;;;;14.32;42.96;96282.88;4947721;28;20426;-81
2023/04/15 07:36:28;;;;;;;2.85;1.70;;;;;;;14.33;42.16;96285.22;4928012;28;20307;-81
2023/04/15 07:38:54;;;;;;;3.50;2.25;;;;;;;14.52;42.26;96284.34;4945067;28;20194;-81
2023/04/15 07:41:20;;;;;;;4.60;1.60;;;;;;;14.52;41.50;96287.72;4965409;28;20249;-80
2023/04/15 07:43:47;;;;;;;2.83;1.60;;;;;;;14.76;41.69;96282.31;4931153;28;20206;-80
2023/04/15 07:46:12;;;;;;;3.38;1.30;;;;;;;15.04;41.58;96287.50;4945526;28;20656;-81
2023/04/15 07:48:38;;;;;;;5.35;2.05;;;;;;;14.97;40.77;96289.75;4931856;28;20268;-80
2023/04/15 07:51:03;;;;;;;4.82;1.67;;;;;;;15.14;41.33;96300.41;4964482;28;20203;-81
2023/04/15 07:53:29;;;;;;;3.28;1.50;;;;;;;15.21;41.32;96300.00;4933913;28;20736;-80
2023/04/15 07:55:54;;;;;;;2.63;1.67;;;;;;;15.00;40.70;96299.66;4949806;28;20648;-80
2023/04/15 07:58:20;;;;;;;2.92;2.08;;;;;;;15.34;40.31;96304.44;4932261;28;20252;-81
2023/04/15 08:00:45;;;;;;;2.75;1.38;;;;;;;15.37;40.32;96303.09;4948544;28;20297;-81
2023/04/15 08:03:11;;;;;;;2.08;1.10;;;;;;;15.46;41.25;96295.28;4948147;28;20283;-80
2023/04/15 08:05:36;;;;;;;4.50;1.40;;;;;;;15.60;40.40;96297.84;4947654;28;20248;-80
2023/04/15 08:08:01;;;;;;;2.92;1.30;;;;;;;15.59;38.95;96294.44;4927985;28;20168;-81
2023/04/15 08:10:28;;;;;;;2.90;1.40;;;;;;;15.69;39.64;96301.31;4962329;28;20175;-81
2023/04/15 08:12:53;;;;;;;3.08;1.30;;;;;;;15.79;38.20;96295.84;4944793;28;20347;-81
2023/04/15 08:15:19;;;;;;;2.25;1.70;;;;;;;16.00;39.34;96304.00;4935764;28;20276;-81
2023/04/15 08:17:45;;;;;;;3.20;1.33;;;;;;;16.10;38.80;96308.22;4939612;28;20245;-80
2023/04/15 08:20:12;;;;;;;2.53;1.40;;;;;;;16.23;38.70;96307.38;4954334;28;20247;-81
2023/04/15 08:22:37;;;;;;;2.63;1.42;;;;;;;16.38;39.50;96310.66;4948360;28;20269;-80
2023/04/15 08:25:03;;;;;;;2.45;1.52;;;;;;;16.50;38.02;96304.84;4964122;28;20172;-80
2023/04/15 08:27:30;;;;;;;2.97;1.35;;;;;;;16.56;37.35;96312.28;4926332;28;20290;-80
2023/04/15 08:29:55;;;;;;;1.40;1.30;;;;;;;16.62;37.05;96311.09;4955150;28;20244;-80
2023/04/15 08:32:21;;;;;;;2.28;1.20;;;;;;;16.56;37.80;96314.94;4931259;28;20222;-80
2023/04/15 08:34:47;;;;;;;2.33;1.20;;;;;;;16.67;38.11;96308.31;4928929;28;20191;-80
2023/04/15 08:37:12;;;;;;;2.67;1.70;;;;;;;16.50;37.71;96320.63;4948387;28;20203;-81
2023/04/15 08:39:37;;;;;;;3.88;1.42;;;;;;;16.28;37.09;96333.50;4964767;28;20201;-80
2023/04/15 08:42:10;;;;;;;2.83;1.35;;;;;;;16.69;37.34;96326.41;4964201;28;20652;-79
2023/04/15 08:44:37;;;;;;;1.67;1.08;;;;;;;16.91;37.79;96327.44;4942506;28;20682;-81
2023/04/15 08:47:06;;;;;;;3.20;1.05;;;;;;;16.75;37.53;96327.06;4949895;28;20191;-80
2023/04/15 08:49:32;;;;;;;2.22;1.15;;;;;;;16.77;36.73;96324.88;4964237;28;20214;-80
2023/04/15 08:51:58;;;;;;;4.60;1.60;;;;;;;16.92;36.29;96329.75;4927753;28;20669;-81
2023/04/15 08:54:23;;;;;;;2.47;1.20;;;;;;;17.06;35.13;96331.50;4954200;28;20642;-81
2023/04/15 08:56:49;;;;;;;3.15;1.25;;;;;;;17.03;35.60;96330.22;4952513;28;20250;-80
2023/04/15 08:59:15;;;;;;;2.60;1.73;;;;;;;17.01;35.11;96335.78;4963955;28;20280;-80
2023/04/15 09:01:40;;;;;;;2.38;1.63;;;;;;;17.02;35.63;96336.59;4964201;28;20652;-80
2023/04/15 09:04:06;;;;;;;3.05;1.60;;;;;;;16.80;36.21;96340.06;4961119;28;20179;-80
2023/04/15 09:06:32;;;;;;;3.15;1.70;;;;;;;16.23;36.73;96346.00;4980486;28;20374;-81
2023/04/15 09:08:57;;;;;;;2.30;1.70;;;;;;;16.25;37.34;96341.22;4963653;28;20195;-79
2023/04/15 09:11:23;;;;;;;2.97;1.38;;;;;;;16.26;37.23;96346.19;4945853;28;20277;-80
2023/04/15 09:13:49;;;;;;;1.42;1.30;;;;;;;16.73;36.93;96345.75;4947141;28;20280;-80
2023/04/15 09:16:14;;;;;;;2.53;1.48;;;;;;;16.88;36.95;96347.22;4947609;28;20206;-81
2023/04/15 09:18:40;;;;;;;4.93;1.40;;;;;;;17.17;35.77;96349.31;4931316;28;20191;-81
2023/04/15 09:21:14;;;;;;;2.78;1.10;;;;;;;17.73;36.06;96357.38;4963381;28;20355;-80
2023/04/15 09:23:41;;;;;;;1.58;1.20;;;;;;;17.83;36.23;96358.16;4927281;28;20302;-81
2023/04/15 09:26:07;;;;;;;2.63;1.27;;;;;;;17.54;35.19;96355.06;4919718;28;20611;-80
2023/04/15 09:28:34;;;;;;;2.05;1.33;;;;;;;17.57;34.46;96361.56;4947309;28;20253;-79
2023/04/15 09:31:01;;;;;;;1.55;1.17;;;;;;;17.48;33.95;96364.22;4962966;28;20364;-80
2023/04/15 09:33:28;;;;;;;3.35;1.13;;;;;;;17.86;33.63;96363.63;4942043;28;20195;-80
2023/04/15 09:36:02;;;;;;;2.85;1.38;;;;;;;18.22;34.35;96364.34;4960479;28;20188;-80
2023/04/15 09:38:27;;;;;;;3.03;1.38;;;;;;;18.00;34.28;96363.44;4956459;28;20168;-81
2023/04/15 09:40:53;;;;;;;3.08;1.25;;;;;;;17.89;33.42;96363.00;4950442;28;20317;-80
2023/04/15 09:43:19;;;;;;;2.15;1.30;;;;;;;17.96;33.22;96365.16;4967193;28;20660;-80
2023/04/15 09:45:52;;;;;;;3.38;1.25;;;;;;;18.10;33.57;96368.38;4950284;28;20683;-80
2023/04/15 09:48:29;;;;;;;2.25;1.10;;;;;;;18.13;34.11;96373.03;4966765;28;20285;-80
2023/04/15 09:50:59;;;;;;;3.63;1.60;;;;;;;18.13;33.29;96372.28;4965997;28;20249;-80
2023/04/15 09:53:25;;;;;;;2.17;1.33;;;;;;;17.82;34.39;96382.94;4947658;28;20200;-80
2023/04/15 09:55:51;;;;;;;2.28;1.20;;;;;;;18.12;32.94;96368.84;4948247;28;20659;-79
2023/04/15 09:58:21;;;;;;;5.10;2.05;;;;;;;17.53;33.03;96374.59;4966818;28;20211;-81
2023/04/15 10:00:48;;;;;;;3.30;1.27;;;;;;;17.65;34.40;96381.06;4931057;28;20638;-81
2023/04/15 10:03:21;;;;;;;3.38;1.63;;;;;;;18.08;33.09;96380.34;4939957;28;20224;-80
2023/04/15 10:05:49;;;;;;;3.22;2.08;;;;;;;17.58;33.95;96382.34;4947057;28;20293;-80
2023/04/15 10:08:19;;;;;;;3.30;1.77;;;;;;;17.98;32.92;96381.41;4958474;28;20275;-80
2023/04/15 10:10:46;;;;;;;4.13;1.67;;;;;;;17.92;34.24;96387.91;4967546;28;20645;-80
2023/04/15 10:13:19;;;;;;;3.10;1.45;;;;;;;17.85;34.83;96387.59;4949840;28;20206;-81
2023/04/15 10:15:50;;;;;;;2.90;1.40;;;;;;;17.64;32.57;96387.44;4951219;28;20232;-80
2023/04/15 10:18:16;;;;;;;3.75;0.98;;;;;;;16.73;33.57;96389.69;4947804;28;20242;-79
2023/04/15 10:20:43;;;;;;;1.90;1.65;;;;;;;17.42;32.55;96387.25;4965216;28;20163;-79
2023/04/15 10:23:08;;;;;;;3.80;1.38;;;;;;;17.98;31.87;96396.47;4946694;28;20196;-80
2023/04/15 10:25:34;;;;;;;3.03;1.35;;;;;;;18.09;32.14;96392.41;4949257;28;20711;-81
2023/04/15 10:27:59;;;;;;;2.28;1.23;;;;;;;17.34;33.13;96397.75;4963821;28;20288;-78
2023/04/15 10:30:25;;;;;;;3.00;1.45;;;;;;;17.23;34.13;96389.38;4967123;28;20148;-80
2023/04/15 10:32:51;;;;;;;2.42;1.42;;;;;;;17.77;33.92;96397.06;4932361;28;20368;-80
2023/04/15 10:35:17;;;;;;;4.03;1.80;;;;;;;17.84;32.79;96399.19;4940885;28;20191;-81
2023/04/15 10:37:42;;;;;;;3.65;1.27;;;;;;;17.68;33.20;96399.66;4931407;28;20246;-80
2023/04/15 10:40:28;;;;;;;1.95;1.20;;;;;;;17.19;31.55;96405.00;4964875;28;20195;-80
2023/04/15 10:42:55;;;;;;;3.72;1.52;;;;;;;16.59;32.73;96421.31;4967284;28;20288;-79
2023/04/15 10:45:20;;;;;;;3.70;1.45;;;;;;;16.60;32.42;96415.72;4934440;28;20629;-80
2023/04/15 10:47:51;;;;;;;2.45;1.02;;;;;;;17.27;32.32;96411.38;4959131;28;20343;-80
2023/04/15 10:50:17;;;;;;;5.05;1.20;;;;;;;17.30;32.79;96402.88;4949784;28;20214;-80
2023/04/15 10:52:43;;;;;;;1.85;1.25;;;;;;;17.55;32.69;96413.75;4949926;28;20203;-80
2023/04/15 10:55:21;;;;;;;2.17;1.05;;;;;;;18.05;32.10;96417.84;4950766;28;20179;-80
2023/04/15 10:57:53;;;;;;;3.75;1.30;;;;;;;18.34;30.56;96414.53;4966321;28;20347;-80
2023/04/15 11:00:20;;;;;;;1.60;1.30;;;;;;;18.18;32.71;96416.09;4956913;28;20167;-80
2023/04/15 11:02:57;;;;;;;1.98;1.20;;;;;;;18.78;32.34;96423.13;4952373;28;20177;-80
2023/04/15 11:05:38;;;;;;;2.53;1.27;;;;;;;18.75;32.64;96420.31;4926107;28;20243;-81
2023/04/15 11:08:04;;;;;;;3.53;1.48;;;;;;;18.65;32.60;96424.09;4967781;28;20268;-80
2023/04/15 11:10:29;;;;;;;3.08;1.48;;;;;;;18.47;33.00;96428.59;4963525;28;20112;-80
2023/04/15 11:13:00;;;;;;;4.93;1.67;;;;;;;18.47;31.98;96436.53;4964875;28;20214;-80
2023/04/15 11:15:33;;;;;;;2.42;1.38;;;;;;;18.44;33.09;96427.38;4949701;28;20641;-79
2023/04/15 11:18:10;;;;;;;3.42;1.50;;;;;;;17.89;32.34;96433.31;4978853;28;20175;-81
2023/04/15 11:20:37;;;;;;;3.85;1.67;;;;;;;17.90;33.85;96437.50;4966341;28;20277;-81
2023/04/15 11:23:03;;;;;;;2.78;1.92;;;;;;;18.24;32.60;96443.84;4933805;28;20179;-80
2023/04/15 11:25:31;;;;;;;3.33;1.83;;;;;;;18.03;30.75;96446.34;4953004;28;20114;-80
2023/04/15 11:27:58;;;;;;;3.13;1.60;;;;;;;17.99;31.44;96450.66;4935063;28;20944;-79
2023/04/15 11:30:25;;;;;;;3.50;1.65;;;;;;;18.14;31.04;96448.34;4950675;28;20365;-80
2023/04/15 11:32:53;;;;;;;2.70;1.60;;;;;;;17.82;32.62;96452.19;4970091;28;20677;-80
2023/04/15 11:35:18;;;;;;;4.22;1.80;;;;;;;17.98;32.02;96449.91;4957693;28;20218;-80